sensor_id;sensor_type;location;lat;lon;timestamp;P1;durP1;ratioP1;P2;durP2;ratioP2
16189;SDS011;41754;51.498;7.540;2023-01-19T00:01:41;13.93;;;9.50;;
16189;SDS011;41754;51.498;7.540;2023-01-19T00:04:08;11.47;;;9.20;;
16189;SDS011;41754;51.498;7.540;2023-01-19T00:06:38;11.13;;;10.00;;
16189;SDS011;41754;51.498;7.540;2023-01-19T00:09:05;11.80;;;9.47;;
16189;SDS011;41754;51.498;7.540;2023-01-19T00:11:33;11.80;;;9.87;;
16189;SDS011;41754;51.498;7.540;2023-01-19T00:14:01;13.20;;;10.20;;
16189;SDS011;41754;51.498;7.540;2023-01-19T00:16:29;11.03;;;9.80;;
16189;SDS011;41754;51.498;7.540;2023-01-19T00:18:57;12.03;;;9.53;;
16189;SDS011;41754;51.498;7.540;2023-01-19T00:21:25;10.70;;;8.97;;
16189;SDS011;41754;51.498;7.540;2023-01-19T00:23:54;10.97;;;9.80;;
16189;SDS011;41754;51.498;7.540;2023-01-19T00:26:21;10.63;;;9.47;;
16189;SDS011;41754;51.498;7.540;2023-01-19T00:28:49;13.03;;;9.67;;
16189;SDS011;41754;51.498;7.540;2023-01-19T00:31:18;12.77;;;9.70;;
16189;SDS011;41754;51.498;7.540;2023-01-19T00:33:47;10.47;;;9.37;;
16189;SDS011;41754;51.498;7.540;2023-01-19T00:36:17;14.10;;;10.10;;
16189;SDS011;41754;51.498;7.540;2023-01-19T00:38:45;12.07;;;10.33;;
16189;SDS011;41754;51.498;7.540;2023-01-19T00:41:14;11.83;;;9.50;;
16189;SDS011;41754;51.498;7.540;2023-01-19T00:43:42;12.13;;;10.43;;
16189;SDS011;41754;51.498;7.540;2023-01-19T00:46:09;10.67;;;9.50;;
16189;SDS011;41754;51.498;7.540;2023-01-19T00:48:37;13.30;;;9.63;;
16189;SDS011;41754;51.498;7.540;2023-01-19T00:51:05;10.20;;;9.13;;
16189;SDS011;41754;51.498;7.540;2023-01-19T00:53:33;11.30;;;9.70;;
16189;SDS011;41754;51.498;7.540;2023-01-19T00:56:00;11.43;;;9.03;;
16189;SDS011;41754;51.498;7.540;2023-01-19T00:58:30;14.53;;;10.60;;
16189;SDS011;41754;51.498;7.540;2023-01-19T01:00:57;13.67;;;10.27;;
16189;SDS011;41754;51.498;7.540;2023-01-19T01:03:29;13.30;;;9.60;;
16189;SDS011;41754;51.498;7.540;2023-01-19T01:05:57;13.53;;;9.77;;
16189;SDS011;41754;51.498;7.540;2023-01-19T01:08:25;11.73;;;9.47;;
16189;SDS011;41754;51.498;7.540;2023-01-19T01:10:52;11.07;;;9.90;;
16189;SDS011;41754;51.498;7.540;2023-01-19T01:13:21;13.23;;;10.60;;
16189;SDS011;41754;51.498;7.540;2023-01-19T01:15:54;11.40;;;9.83;;
16189;SDS011;41754;51.498;7.540;2023-01-19T01:18:23;14.13;;;10.00;;
16189;SDS011;41754;51.498;7.540;2023-01-19T01:20:51;12.37;;;10.00;;
16189;SDS011;41754;51.498;7.540;2023-01-19T01:23:21;11.40;;;9.90;;
16189;SDS011;41754;51.498;7.540;2023-01-19T01:25:49;12.63;;;9.80;;
16189;SDS011;41754;51.498;7.540;2023-01-19T01:28:17;11.23;;;9.57;;
16189;SDS011;41754;51.498;7.540;2023-01-19T01:30:44;12.17;;;9.33;;
16189;SDS011;41754;51.498;7.540;2023-01-19T01:33:14;11.47;;;10.27;;
16189;SDS011;41754;51.498;7.540;2023-01-19T01:36:01;12.50;;;9.70;;
16189;SDS011;41754;51.498;7.540;2023-01-19T01:38:29;10.83;;;9.73;;
16189;SDS011;41754;51.498;7.540;2023-01-19T01:40:57;11.03;;;9.23;;
16189;SDS011;41754;51.498;7.540;2023-01-19T01:43:39;10.63;;;9.53;;
16189;SDS011;41754;51.498;7.540;2023-01-19T01:46:09;13.03;;;9.27;;
16189;SDS011;41754;51.498;7.540;2023-01-19T01:48:42;11.40;;;9.57;;
16189;SDS011;41754;51.498;7.540;2023-01-19T01:51:16;11.80;;;9.10;;
16189;SDS011;41754;51.498;7.540;2023-01-19T01:56:41;9.93;;;8.60;;
16189;SDS011;41754;51.498;7.540;2023-01-19T01:59:12;10.97;;;8.73;;
16189;SDS011;41754;51.498;7.540;2023-01-19T02:01:55;10.77;;;9.13;;
16189;SDS011;41754;51.498;7.540;2023-01-19T02:04:45;11.63;;;9.73;;
16189;SDS011;41754;51.498;7.540;2023-01-19T02:07:18;12.80;;;10.07;;
16189;SDS011;41754;51.498;7.540;2023-01-19T02:10:10;13.07;;;10.07;;
16189;SDS011;41754;51.498;7.540;2023-01-19T02:12:56;13.13;;;9.83;;
16189;SDS011;41754;51.498;7.540;2023-01-19T02:15:42;12.03;;;10.07;;
16189;SDS011;41754;51.498;7.540;2023-01-19T02:18:10;12.63;;;10.63;;
16189;SDS011;41754;51.498;7.540;2023-01-19T02:20:40;11.77;;;10.53;;
16189;SDS011;41754;51.498;7.540;2023-01-19T02:23:16;15.93;;;11.30;;
16189;SDS011;41754;51.498;7.540;2023-01-19T02:25:51;12.63;;;11.03;;
16189;SDS011;41754;51.498;7.540;2023-01-19T02:28:19;15.03;;;11.13;;
16189;SDS011;41754;51.498;7.540;2023-01-19T02:30:47;16.13;;;10.30;;
16189;SDS011;41754;51.498;7.540;2023-01-19T02:33:15;12.17;;;10.27;;
16189;SDS011;41754;51.498;7.540;2023-01-19T02:35:43;12.07;;;10.50;;
16189;SDS011;41754;51.498;7.540;2023-01-19T02:38:12;13.17;;;10.70;;
16189;SDS011;41754;51.498;7.540;2023-01-19T02:40:44;12.60;;;10.20;;
16189;SDS011;41754;51.498;7.540;2023-01-19T02:43:14;13.73;;;10.93;;
16189;SDS011;41754;51.498;7.540;2023-01-19T02:45:44;12.70;;;10.37;;
16189;SDS011;41754;51.498;7.540;2023-01-19T02:48:13;10.80;;;9.60;;
16189;SDS011;41754;51.498;7.540;2023-01-19T02:50:43;12.07;;;9.20;;
16189;SDS011;41754;51.498;7.540;2023-01-19T02:59:21;12.00;;;8.50;;
16189;SDS011;41754;51.498;7.540;2023-01-19T03:01:59;10.80;;;7.90;;
16189;SDS011;41754;51.498;7.540;2023-01-19T03:04:41;11.87;;;8.07;;
16189;SDS011;41754;51.498;7.540;2023-01-19T03:07:33;9.03;;;8.13;;
16189;SDS011;41754;51.498;7.540;2023-01-19T03:10:13;10.83;;;8.53;;
16189;SDS011;41754;51.498;7.540;2023-01-19T03:12:47;9.77;;;8.03;;
16189;SDS011;41754;51.498;7.540;2023-01-19T03:15:22;10.87;;;8.40;;
16189;SDS011;41754;51.498;7.540;2023-01-19T03:17:55;9.87;;;8.00;;
16189;SDS011;41754;51.498;7.540;2023-01-19T03:20:26;10.40;;;8.27;;
16189;SDS011;41754;51.498;7.540;2023-01-19T03:23:00;9.93;;;8.27;;
16189;SDS011;41754;51.498;7.540;2023-01-19T03:25:32;9.10;;;7.60;;
16189;SDS011;41754;51.498;7.540;2023-01-19T03:28:04;11.47;;;9.20;;
16189;SDS011;41754;51.498;7.540;2023-01-19T03:30:33;8.73;;;7.80;;
16189;SDS011;41754;51.498;7.540;2023-01-19T03:33:06;9.23;;;7.83;;
16189;SDS011;41754;51.498;7.540;2023-01-19T03:35:40;8.80;;;7.70;;
16189;SDS011;41754;51.498;7.540;2023-01-19T03:38:13;11.83;;;7.63;;
16189;SDS011;41754;51.498;7.540;2023-01-19T03:40:43;10.90;;;8.10;;
16189;SDS011;41754;51.498;7.540;2023-01-19T03:43:14;8.40;;;7.50;;
16189;SDS011;41754;51.498;7.540;2023-01-19T03:45:45;8.53;;;7.33;;
16189;SDS011;41754;51.498;7.540;2023-01-19T03:48:13;8.80;;;7.60;;
16189;SDS011;41754;51.498;7.540;2023-01-19T03:50:42;11.37;;;7.83;;
16189;SDS011;41754;51.498;7.540;2023-01-19T03:53:10;9.53;;;7.00;;
16189;SDS011;41754;51.498;7.540;2023-01-19T03:55:40;7.90;;;6.70;;
16189;SDS011;41754;51.498;7.540;2023-01-19T03:58:09;8.90;;;7.37;;
16189;SDS011;41754;51.498;7.540;2023-01-19T04:00:38;10.93;;;7.63;;
16189;SDS011;41754;51.498;7.540;2023-01-19T04:03:11;8.13;;;6.43;;
16189;SDS011;41754;51.498;7.540;2023-01-19T04:05:41;14.63;;;8.00;;
16189;SDS011;41754;51.498;7.540;2023-01-19T04:08:09;11.43;;;8.03;;
16189;SDS011;41754;51.498;7.540;2023-01-19T04:10:37;12.00;;;7.07;;
16189;SDS011;41754;51.498;7.540;2023-01-19T04:13:05;7.73;;;6.93;;
16189;SDS011;41754;51.498;7.540;2023-01-19T04:15:33;10.23;;;7.13;;
16189;SDS011;41754;51.498;7.540;2023-01-19T04:18:01;12.63;;;7.87;;
16189;SDS011;41754;51.498;7.540;2023-01-19T04:20:30;8.97;;;6.97;;
16189;SDS011;41754;51.498;7.540;2023-01-19T04:22:59;8.57;;;6.43;;
16189;SDS011;41754;51.498;7.540;2023-01-19T04:25:28;11.30;;;7.07;;
16189;SDS011;41754;51.498;7.540;2023-01-19T04:27:56;8.13;;;6.80;;
16189;SDS011;41754;51.498;7.540;2023-01-19T04:30:24;10.17;;;7.40;;
16189;SDS011;41754;51.498;7.540;2023-01-19T04:32:53;9.90;;;7.40;;
16189;SDS011;41754;51.498;7.540;2023-01-19T04:35:21;8.40;;;7.17;;
16189;SDS011;41754;51.498;7.540;2023-01-19T04:37:51;12.40;;;7.67;;
16189;SDS011;41754;51.498;7.540;2023-01-19T04:40:18;10.43;;;7.20;;
16189;SDS011;41754;51.498;7.540;2023-01-19T04:42:46;9.93;;;6.90;;
16189;SDS011;41754;51.498;7.540;2023-01-19T04:45:14;12.17;;;7.10;;
16189;SDS011;41754;51.498;7.540;2023-01-19T04:47:42;10.10;;;6.73;;
16189;SDS011;41754;51.498;7.540;2023-01-19T04:50:10;7.70;;;6.90;;
16189;SDS011;41754;51.498;7.540;2023-01-19T04:52:38;11.50;;;7.80;;
16189;SDS011;41754;51.498;7.540;2023-01-19T04:55:08;9.67;;;7.60;;
16189;SDS011;41754;51.498;7.540;2023-01-19T04:57:37;8.17;;;6.93;;
16189;SDS011;41754;51.498;7.540;2023-01-19T05:00:05;9.63;;;7.37;;
16189;SDS011;41754;51.498;7.540;2023-01-19T05:02:33;9.93;;;7.87;;
16189;SDS011;41754;51.498;7.540;2023-01-19T05:05:01;10.87;;;7.87;;
16189;SDS011;41754;51.498;7.540;2023-01-19T05:07:30;9.00;;;7.93;;
16189;SDS011;41754;51.498;7.540;2023-01-19T05:09:58;11.30;;;9.07;;
16189;SDS011;41754;51.498;7.540;2023-01-19T05:12:27;11.83;;;9.40;;
16189;SDS011;41754;51.498;7.540;2023-01-19T05:14:55;13.53;;;9.33;;
16189;SDS011;41754;51.498;7.540;2023-01-19T05:17:23;10.47;;;9.37;;
16189;SDS011;41754;51.498;7.540;2023-01-19T05:19:51;11.20;;;8.93;;
16189;SDS011;41754;51.498;7.540;2023-01-19T05:22:19;11.13;;;8.80;;
16189;SDS011;41754;51.498;7.540;2023-01-19T05:24:46;11.17;;;9.57;;
16189;SDS011;41754;51.498;7.540;2023-01-19T05:27:14;9.97;;;8.67;;
16189;SDS011;41754;51.498;7.540;2023-01-19T05:29:43;11.20;;;9.87;;
16189;SDS011;41754;51.498;7.540;2023-01-19T05:32:11;11.03;;;9.20;;
16189;SDS011;41754;51.498;7.540;2023-01-19T05:34:39;9.77;;;8.57;;
16189;SDS011;41754;51.498;7.540;2023-01-19T05:37:07;10.30;;;9.13;;
16189;SDS011;41754;51.498;7.540;2023-01-19T05:39:35;11.20;;;8.47;;
16189;SDS011;41754;51.498;7.540;2023-01-19T05:42:03;9.03;;;8.13;;
16189;SDS011;41754;51.498;7.540;2023-01-19T05:44:31;11.73;;;8.70;;
16189;SDS011;41754;51.498;7.540;2023-01-19T05:47:00;12.63;;;8.93;;
16189;SDS011;41754;51.498;7.540;2023-01-19T05:49:28;9.60;;;8.67;;
16189;SDS011;41754;51.498;7.540;2023-01-19T05:51:56;9.10;;;8.20;;
16189;SDS011;41754;51.498;7.540;2023-01-19T05:54:24;9.87;;;7.80;;
16189;SDS011;41754;51.498;7.540;2023-01-19T05:56:52;10.93;;;8.87;;
16189;SDS011;41754;51.498;7.540;2023-01-19T05:59:19;11.00;;;9.57;;
16189;SDS011;41754;51.498;7.540;2023-01-19T06:01:49;9.70;;;8.70;;
16189;SDS011;41754;51.498;7.540;2023-01-19T06:04:18;8.87;;;7.33;;
16189;SDS011;41754;51.498;7.540;2023-01-19T06:06:47;9.53;;;8.00;;
16189;SDS011;41754;51.498;7.540;2023-01-19T06:09:15;9.20;;;8.30;;
16189;SDS011;41754;51.498;7.540;2023-01-19T06:11:43;9.30;;;8.40;;
16189;SDS011;41754;51.498;7.540;2023-01-19T06:14:12;12.43;;;8.83;;
16189;SDS011;41754;51.498;7.540;2023-01-19T06:16:40;10.50;;;8.60;;
16189;SDS011;41754;51.498;7.540;2023-01-19T06:19:08;12.30;;;8.63;;
16189;SDS011;41754;51.498;7.540;2023-01-19T06:21:37;9.87;;;8.87;;
16189;SDS011;41754;51.498;7.540;2023-01-19T06:24:05;9.97;;;8.67;;
16189;SDS011;41754;51.498;7.540;2023-01-19T06:26:33;9.50;;;8.40;;
16189;SDS011;41754;51.498;7.540;2023-01-19T06:29:00;10.83;;;9.03;;
16189;SDS011;41754;51.498;7.540;2023-01-19T06:31:28;10.07;;;8.87;;
16189;SDS011;41754;51.498;7.540;2023-01-19T06:33:56;10.40;;;9.40;;
16189;SDS011;41754;51.498;7.540;2023-01-19T06:36:24;9.20;;;8.27;;
16189;SDS011;41754;51.498;7.540;2023-01-19T06:38:53;8.73;;;7.83;;
16189;SDS011;41754;51.498;7.540;2023-01-19T06:41:21;7.10;;;6.43;;
16189;SDS011;41754;51.498;7.540;2023-01-19T06:43:48;8.43;;;7.57;;
16189;SDS011;41754;51.498;7.540;2023-01-19T06:46:16;6.93;;;5.97;;
16189;SDS011;41754;51.498;7.540;2023-01-19T06:48:44;6.13;;;5.60;;
16189;SDS011;41754;51.498;7.540;2023-01-19T06:51:12;6.67;;;5.63;;
16189;SDS011;41754;51.498;7.540;2023-01-19T06:53:39;6.17;;;5.57;;
16189;SDS011;41754;51.498;7.540;2023-01-19T06:56:09;5.77;;;5.23;;
16189;SDS011;41754;51.498;7.540;2023-01-19T06:58:36;5.53;;;5.03;;
16189;SDS011;41754;51.498;7.540;2023-01-19T07:01:05;5.70;;;4.90;;
16189;SDS011;41754;51.498;7.540;2023-01-19T07:03:34;5.13;;;4.63;;
16189;SDS011;41754;51.498;7.540;2023-01-19T07:06:04;5.17;;;4.67;;
16189;SDS011;41754;51.498;7.540;2023-01-19T07:08:33;4.23;;;3.83;;
16189;SDS011;41754;51.498;7.540;2023-01-19T07:11:01;4.90;;;4.40;;
16189;SDS011;41754;51.498;7.540;2023-01-19T07:13:53;3.80;;;3.50;;
16189;SDS011;41754;51.498;7.540;2023-01-19T07:16:21;4.97;;;4.50;;
16189;SDS011;41754;51.498;7.540;2023-01-19T07:18:50;4.97;;;4.17;;
16189;SDS011;41754;51.498;7.540;2023-01-19T07:21:17;4.53;;;4.13;;
16189;SDS011;41754;51.498;7.540;2023-01-19T07:23:46;4.27;;;3.87;;
16189;SDS011;41754;51.498;7.540;2023-01-19T07:26:15;3.70;;;3.40;;
16189;SDS011;41754;51.498;7.540;2023-01-19T07:28:47;4.03;;;3.63;;
16189;SDS011;41754;51.498;7.540;2023-01-19T07:31:16;4.10;;;3.80;;
16189;SDS011;41754;51.498;7.540;2023-01-19T07:33:45;4.47;;;4.07;;
16189;SDS011;41754;51.498;7.540;2023-01-19T07:36:13;3.87;;;3.47;;
16189;SDS011;41754;51.498;7.540;2023-01-19T07:38:41;3.97;;;3.47;;
16189;SDS011;41754;51.498;7.540;2023-01-19T07:41:09;4.30;;;3.40;;
16189;SDS011;41754;51.498;7.540;2023-01-19T07:43:37;3.77;;;3.47;;
16189;SDS011;41754;51.498;7.540;2023-01-19T07:46:05;3.53;;;3.23;;
16189;SDS011;41754;51.498;7.540;2023-01-19T07:48:35;4.93;;;3.50;;
16189;SDS011;41754;51.498;7.540;2023-01-19T07:51:03;3.90;;;3.60;;
16189;SDS011;41754;51.498;7.540;2023-01-19T07:53:37;3.43;;;3.13;;
16189;SDS011;41754;51.498;7.540;2023-01-19T07:56:07;3.07;;;2.80;;
16189;SDS011;41754;51.498;7.540;2023-01-19T07:58:35;3.17;;;2.90;;
16189;SDS011;41754;51.498;7.540;2023-01-19T08:01:04;3.67;;;3.37;;
16189;SDS011;41754;51.498;7.540;2023-01-19T08:03:34;4.03;;;3.67;;
16189;SDS011;41754;51.498;7.540;2023-01-19T08:06:02;4.50;;;4.10;;
16189;SDS011;41754;51.498;7.540;2023-01-19T08:08:32;9.03;;;8.13;;
16189;SDS011;41754;51.498;7.540;2023-01-19T08:11:00;8.50;;;6.93;;
16189;SDS011;41754;51.498;7.540;2023-01-19T08:13:28;6.93;;;5.70;;
16189;SDS011;41754;51.498;7.540;2023-01-19T08:15:56;11.00;;;8.07;;
16189;SDS011;41754;51.498;7.540;2023-01-19T08:18:24;12.20;;;9.40;;
16189;SDS011;41754;51.498;7.540;2023-01-19T08:20:53;8.53;;;6.70;;
16189;SDS011;41754;51.498;7.540;2023-01-19T08:23:21;8.03;;;7.00;;
16189;SDS011;41754;51.498;7.540;2023-01-19T08:25:49;8.20;;;6.50;;
16189;SDS011;41754;51.498;7.540;2023-01-19T08:28:16;18.47;;;13.50;;
16189;SDS011;41754;51.498;7.540;2023-01-19T08:30:44;9.70;;;8.70;;
16189;SDS011;41754;51.498;7.540;2023-01-19T08:33:19;11.97;;;9.00;;
16189;SDS011;41754;51.498;7.540;2023-01-19T08:35:48;9.40;;;8.50;;
16189;SDS011;41754;51.498;7.540;2023-01-19T08:38:19;13.20;;;9.33;;
16189;SDS011;41754;51.498;7.540;2023-01-19T08:40:48;10.27;;;9.13;;
16189;SDS011;41754;51.498;7.540;2023-01-19T08:43:15;11.53;;;8.73;;
16189;SDS011;41754;51.498;7.540;2023-01-19T08:45:44;11.13;;;9.80;;
16189;SDS011;41754;51.498;7.540;2023-01-19T08:48:16;12.67;;;10.30;;
16189;SDS011;41754;51.498;7.540;2023-01-19T08:50:47;11.37;;;9.53;;
16189;SDS011;41754;51.498;7.540;2023-01-19T08:53:16;12.00;;;9.10;;
16189;SDS011;41754;51.498;7.540;2023-01-19T08:55:47;12.70;;;10.20;;
16189;SDS011;41754;51.498;7.540;2023-01-19T08:58:16;13.70;;;10.17;;
16189;SDS011;41754;51.498;7.540;2023-01-19T09:00:43;12.03;;;9.70;;
16189;SDS011;41754;51.498;7.540;2023-01-19T09:03:11;13.60;;;10.50;;
16189;SDS011;41754;51.498;7.540;2023-01-19T09:05:39;10.87;;;9.27;;
16189;SDS011;41754;51.498;7.540;2023-01-19T09:08:08;14.00;;;10.90;;
16189;SDS011;41754;51.498;7.540;2023-01-19T09:10:38;14.27;;;11.17;;
16189;SDS011;41754;51.498;7.540;2023-01-19T09:13:12;16.13;;;11.17;;
16189;SDS011;41754;51.498;7.540;2023-01-19T09:15:41;14.70;;;10.47;;
16189;SDS011;41754;51.498;7.540;2023-01-19T09:18:10;12.90;;;10.67;;
16189;SDS011;41754;51.498;7.540;2023-01-19T09:20:39;16.97;;;12.00;;
16189;SDS011;41754;51.498;7.540;2023-01-19T09:23:08;14.97;;;11.83;;
16189;SDS011;41754;51.498;7.540;2023-01-19T09:25:37;14.70;;;12.47;;
16189;SDS011;41754;51.498;7.540;2023-01-19T09:28:05;13.73;;;11.47;;
16189;SDS011;41754;51.498;7.540;2023-01-19T09:30:36;18.40;;;12.70;;
16189;SDS011;41754;51.498;7.540;2023-01-19T09:33:06;16.93;;;13.80;;
16189;SDS011;41754;51.498;7.540;2023-01-19T09:35:36;17.40;;;14.10;;
16189;SDS011;41754;51.498;7.540;2023-01-19T09:38:04;15.83;;;13.97;;
16189;SDS011;41754;51.498;7.540;2023-01-19T09:40:34;15.23;;;13.53;;
16189;SDS011;41754;51.498;7.540;2023-01-19T09:43:10;15.60;;;12.13;;
16189;SDS011;41754;51.498;7.540;2023-01-19T09:45:44;17.47;;;15.60;;
16189;SDS011;41754;51.498;7.540;2023-01-19T09:48:20;21.47;;;17.67;;
16189;SDS011;41754;51.498;7.540;2023-01-19T09:50:57;27.33;;;16.87;;
16189;SDS011;41754;51.498;7.540;2023-01-19T09:53:32;22.57;;;17.33;;
16189;SDS011;41754;51.498;7.540;2023-01-19T09:56:09;23.60;;;18.53;;
16189;SDS011;41754;51.498;7.540;2023-01-19T09:58:40;20.57;;;17.63;;
16189;SDS011;41754;51.498;7.540;2023-01-19T10:01:14;22.67;;;18.73;;
16189;SDS011;41754;51.498;7.540;2023-01-19T10:03:52;24.40;;;19.57;;
16189;SDS011;41754;51.498;7.540;2023-01-19T10:06:34;23.27;;;18.50;;
16189;SDS011;41754;51.498;7.540;2023-01-19T10:09:03;23.67;;;19.13;;
16189;SDS011;41754;51.498;7.540;2023-01-19T10:11:41;24.47;;;19.03;;
16189;SDS011;41754;51.498;7.540;2023-01-19T10:14:19;23.33;;;19.97;;
16189;SDS011;41754;51.498;7.540;2023-01-19T10:16:59;26.63;;;20.97;;
16189;SDS011;41754;51.498;7.540;2023-01-19T10:19:32;25.57;;;20.27;;
16189;SDS011;41754;51.498;7.540;2023-01-19T10:22:06;24.33;;;18.87;;
16189;SDS011;41754;51.498;7.540;2023-01-19T10:24:46;21.70;;;18.63;;
16189;SDS011;41754;51.498;7.540;2023-01-19T10:27:18;24.83;;;21.27;;
16189;SDS011;41754;51.498;7.540;2023-01-19T10:29:50;21.23;;;18.97;;
16189;SDS011;41754;51.498;7.540;2023-01-19T10:32:21;23.77;;;20.47;;
16189;SDS011;41754;51.498;7.540;2023-01-19T10:34:51;20.87;;;18.53;;
16189;SDS011;41754;51.498;7.540;2023-01-19T10:37:24;23.10;;;19.20;;
16189;SDS011;41754;51.498;7.540;2023-01-19T10:39:58;21.37;;;18.30;;
16189;SDS011;41754;51.498;7.540;2023-01-19T10:42:32;23.97;;;17.97;;
16189;SDS011;41754;51.498;7.540;2023-01-19T10:45:01;20.20;;;17.33;;
16189;SDS011;41754;51.498;7.540;2023-01-19T10:47:32;20.67;;;18.43;;
16189;SDS011;41754;51.498;7.540;2023-01-19T10:50:05;22.27;;;18.73;;
16189;SDS011;41754;51.498;7.540;2023-01-19T10:52:49;23.60;;;18.83;;
16189;SDS011;41754;51.498;7.540;2023-01-19T10:55:22;23.83;;;18.57;;
16189;SDS011;41754;51.498;7.540;2023-01-19T10:57:52;22.53;;;18.43;;
16189;SDS011;41754;51.498;7.540;2023-01-19T11:00:33;27.30;;;21.37;;
16189;SDS011;41754;51.498;7.540;2023-01-19T11:03:04;23.67;;;21.10;;
16189;SDS011;41754;51.498;7.540;2023-01-19T11:05:50;28.87;;;21.73;;
16189;SDS011;41754;51.498;7.540;2023-01-19T11:08:22;27.90;;;20.83;;
16189;SDS011;41754;51.498;7.540;2023-01-19T11:10:56;32.90;;;23.40;;
16189;SDS011;41754;51.498;7.540;2023-01-19T11:13:27;33.13;;;22.83;;
16189;SDS011;41754;51.498;7.540;2023-01-19T11:15:56;29.87;;;24.00;;
16189;SDS011;41754;51.498;7.540;2023-01-19T11:18:27;32.17;;;23.03;;
16189;SDS011;41754;51.498;7.540;2023-01-19T11:20:57;27.40;;;22.77;;
16189;SDS011;41754;51.498;7.540;2023-01-19T11:23:28;28.47;;;23.53;;
16189;SDS011;41754;51.498;7.540;2023-01-19T11:26:00;28.83;;;22.60;;
16189;SDS011;41754;51.498;7.540;2023-01-19T11:28:32;31.10;;;23.47;;
16189;SDS011;41754;51.498;7.540;2023-01-19T11:31:15;28.90;;;22.37;;
16189;SDS011;41754;51.498;7.540;2023-01-19T11:33:48;30.20;;;21.77;;
16189;SDS011;41754;51.498;7.540;2023-01-19T11:36:18;30.93;;;23.73;;
16189;SDS011;41754;51.498;7.540;2023-01-19T11:38:48;36.27;;;24.53;;
16189;SDS011;41754;51.498;7.540;2023-01-19T11:41:18;31.63;;;24.57;;
16189;SDS011;41754;51.498;7.540;2023-01-19T11:43:50;34.93;;;25.33;;
16189;SDS011;41754;51.498;7.540;2023-01-19T11:46:20;37.63;;;24.50;;
16189;SDS011;41754;51.498;7.540;2023-01-19T11:48:53;35.87;;;25.30;;
16189;SDS011;41754;51.498;7.540;2023-01-19T11:51:28;36.27;;;25.20;;
16189;SDS011;41754;51.498;7.540;2023-01-19T11:54:00;35.97;;;24.60;;
16189;SDS011;41754;51.498;7.540;2023-01-19T11:56:34;36.00;;;23.63;;
16189;SDS011;41754;51.498;7.540;2023-01-19T11:59:02;36.37;;;26.13;;
16189;SDS011;41754;51.498;7.540;2023-01-19T12:01:30;33.33;;;25.47;;
16189;SDS011;41754;51.498;7.540;2023-01-19T12:04:02;38.80;;;26.80;;
16189;SDS011;41754;51.498;7.540;2023-01-19T12:06:37;34.20;;;26.77;;
16189;SDS011;41754;51.498;7.540;2023-01-19T12:09:10;37.97;;;26.23;;
16189;SDS011;41754;51.498;7.540;2023-01-19T12:11:44;51.50;;;26.07;;
16189;SDS011;41754;51.498;7.540;2023-01-19T12:14:16;40.10;;;27.63;;
16189;SDS011;41754;51.498;7.540;2023-01-19T12:16:48;39.63;;;26.67;;
16189;SDS011;41754;51.498;7.540;2023-01-19T12:19:21;35.03;;;26.60;;
16189;SDS011;41754;51.498;7.540;2023-01-19T12:21:52;37.17;;;27.27;;
16189;SDS011;41754;51.498;7.540;2023-01-19T12:24:22;38.07;;;27.17;;
16189;SDS011;41754;51.498;7.540;2023-01-19T12:26:56;39.83;;;28.53;;
16189;SDS011;41754;51.498;7.540;2023-01-19T12:29:27;36.67;;;27.90;;
16189;SDS011;41754;51.498;7.540;2023-01-19T12:32:16;37.10;;;27.77;;
16189;SDS011;41754;51.498;7.540;2023-01-19T12:34:47;39.83;;;26.97;;
16189;SDS011;41754;51.498;7.540;2023-01-19T12:37:27;40.00;;;27.90;;
16189;SDS011;41754;51.498;7.540;2023-01-19T12:40:01;38.90;;;26.93;;
16189;SDS011;41754;51.498;7.540;2023-01-19T12:42:32;34.50;;;25.10;;
16189;SDS011;41754;51.498;7.540;2023-01-19T12:45:04;29.10;;;22.77;;
16189;SDS011;41754;51.498;7.540;2023-01-19T12:47:35;36.77;;;24.30;;
16189;SDS011;41754;51.498;7.540;2023-01-19T12:50:05;30.83;;;22.13;;
16189;SDS011;41754;51.498;7.540;2023-01-19T12:52:40;37.27;;;23.70;;
16189;SDS011;41754;51.498;7.540;2023-01-19T12:55:20;34.47;;;23.77;;
16189;SDS011;41754;51.498;7.540;2023-01-19T12:57:52;31.87;;;23.97;;
16189;SDS011;41754;51.498;7.540;2023-01-19T13:00:30;37.10;;;24.23;;
16189;SDS011;41754;51.498;7.540;2023-01-19T13:03:02;35.00;;;25.33;;
16189;SDS011;41754;51.498;7.540;2023-01-19T13:05:51;35.60;;;23.97;;
16189;SDS011;41754;51.498;7.540;2023-01-19T13:08:21;37.57;;;25.27;;
16189;SDS011;41754;51.498;7.540;2023-01-19T13:13:41;35.57;;;25.37;;
16189;SDS011;41754;51.498;7.540;2023-01-19T13:19:16;40.50;;;25.10;;
16189;SDS011;41754;51.498;7.540;2023-01-19T13:21:50;37.27;;;24.67;;
16189;SDS011;41754;51.498;7.540;2023-01-19T13:24:19;35.03;;;23.80;;
16189;SDS011;41754;51.498;7.540;2023-01-19T13:26:52;39.20;;;25.40;;
16189;SDS011;41754;51.498;7.540;2023-01-19T13:29:24;36.23;;;25.00;;
16189;SDS011;41754;51.498;7.540;2023-01-19T13:31:56;37.70;;;26.10;;
16189;SDS011;41754;51.498;7.540;2023-01-19T13:34:29;42.93;;;26.07;;
16189;SDS011;41754;51.498;7.540;2023-01-19T13:37:01;33.57;;;23.77;;
16189;SDS011;41754;51.498;7.540;2023-01-19T13:39:33;31.27;;;22.30;;
16189;SDS011;41754;51.498;7.540;2023-01-19T13:42:04;32.73;;;22.60;;
16189;SDS011;41754;51.498;7.540;2023-01-19T13:44:34;38.37;;;23.70;;
16189;SDS011;41754;51.498;7.540;2023-01-19T13:47:11;33.80;;;22.57;;
16189;SDS011;41754;51.498;7.540;2023-01-19T13:49:44;32.43;;;22.37;;
16189;SDS011;41754;51.498;7.540;2023-01-19T13:52:18;35.47;;;21.83;;
16189;SDS011;41754;51.498;7.540;2023-01-19T13:54:49;34.97;;;21.47;;
16189;SDS011;41754;51.498;7.540;2023-01-19T13:57:22;36.37;;;21.33;;
16189;SDS011;41754;51.498;7.540;2023-01-19T14:00:05;35.43;;;22.50;;
16189;SDS011;41754;51.498;7.540;2023-01-19T14:02:50;32.37;;;19.93;;
16189;SDS011;41754;51.498;7.540;2023-01-19T14:05:22;35.27;;;20.70;;
16189;SDS011;41754;51.498;7.540;2023-01-19T14:08:00;36.40;;;21.47;;
16189;SDS011;41754;51.498;7.540;2023-01-19T14:10:28;32.13;;;20.77;;
16189;SDS011;41754;51.498;7.540;2023-01-19T14:12:57;29.73;;;20.43;;
16189;SDS011;41754;51.498;7.540;2023-01-19T14:15:26;37.97;;;21.63;;
16189;SDS011;41754;51.498;7.540;2023-01-19T14:18:17;32.47;;;22.03;;
16189;SDS011;41754;51.498;7.540;2023-01-19T14:20:51;32.67;;;21.37;;
16189;SDS011;41754;51.498;7.540;2023-01-19T14:23:38;31.77;;;21.97;;
16189;SDS011;41754;51.498;7.540;2023-01-19T14:29:13;34.30;;;21.50;;
16189;SDS011;41754;51.498;7.540;2023-01-19T14:31:44;34.20;;;22.37;;
16189;SDS011;41754;51.498;7.540;2023-01-19T14:34:27;32.60;;;21.20;;
16189;SDS011;41754;51.498;7.540;2023-01-19T14:36:56;31.27;;;20.97;;
16189;SDS011;41754;51.498;7.540;2023-01-19T14:39:26;32.27;;;22.00;;
16189;SDS011;41754;51.498;7.540;2023-01-19T14:41:57;36.67;;;24.33;;
16189;SDS011;41754;51.498;7.540;2023-01-19T14:44:27;32.63;;;23.17;;
16189;SDS011;41754;51.498;7.540;2023-01-19T14:46:58;31.27;;;19.93;;
16189;SDS011;41754;51.498;7.540;2023-01-19T14:49:29;28.43;;;19.90;;
16189;SDS011;41754;51.498;7.540;2023-01-19T14:51:59;28.83;;;20.33;;
16189;SDS011;41754;51.498;7.540;2023-01-19T14:54:35;31.00;;;20.10;;
16189;SDS011;41754;51.498;7.540;2023-01-19T14:57:09;28.93;;;20.60;;
16189;SDS011;41754;51.498;7.540;2023-01-19T14:59:38;33.80;;;20.63;;
16189;SDS011;41754;51.498;7.540;2023-01-19T15:02:06;30.63;;;19.17;;
16189;SDS011;41754;51.498;7.540;2023-01-19T15:04:35;31.90;;;20.07;;
16189;SDS011;41754;51.498;7.540;2023-01-19T15:07:03;28.87;;;18.20;;
16189;SDS011;41754;51.498;7.540;2023-01-19T15:09:32;29.77;;;19.57;;
16189;SDS011;41754;51.498;7.540;2023-01-19T15:12:01;25.97;;;17.90;;